sensor_id;sensor_type;location;lat;lon;timestamp;temperature;humidity
73576;DHT22;61859;49.204;8.140;2023-09-19T00:02:05;16.50;99.90
73576;DHT22;61859;49.204;8.140;2023-09-19T00:04:32;16.50;99.90
73576;DHT22;61859;49.204;8.140;2023-09-19T00:06:58;16.50;99.90
73576;DHT22;61859;49.204;8.140;2023-09-19T00:09:24;16.40;99.90
73576;DHT22;61859;49.204;8.140;2023-09-19T00:11:53;16.40;99.90
73576;DHT22;61859;49.204;8.140;2023-09-19T00:14:19;16.50;99.90
73576;DHT22;61859;49.204;8.140;2023-09-19T00:16:44;16.50;99.90
73576;DHT22;61859;49.204;8.140;2023-09-19T00:19:11;16.50;99.90
73576;DHT22;61859;49.204;8.140;2023-09-19T00:21:37;16.50;99.90
73576;DHT22;61859;49.204;8.140;2023-09-19T00:24:04;16.50;99.90
73576;DHT22;61859;49.204;8.140;2023-09-19T00:26:32;16.40;99.90
73576;DHT22;61859;49.204;8.140;2023-09-19T00:28:57;16.40;99.90
73576;DHT22;61859;49.204;8.140;2023-09-19T00:31:30;16.40;99.90
73576;DHT22;61859;49.204;8.140;2023-09-19T00:33:56;16.50;99.90
73576;DHT22;61859;49.204;8.140;2023-09-19T00:36:28;16.50;99.90
73576;DHT22;61859;49.204;8.140;2023-09-19T00:38:54;16.50;99.90
73576;DHT22;61859;49.204;8.140;2023-09-19T00:41:20;16.50;99.90
73576;DHT22;61859;49.204;8.140;2023-09-19T00:43:46;16.50;99.90
73576;DHT22;61859;49.204;8.140;2023-09-19T00:46:16;16.50;99.90
73576;DHT22;61859;49.204;8.140;2023-09-19T00:48:42;16.50;99.90
73576;DHT22;61859;49.204;8.140;2023-09-19T00:51:12;16.50;99.90
73576;DHT22;61859;49.204;8.140;2023-09-19T00:53:39;16.50;99.90
73576;DHT22;61859;49.204;8.140;2023-09-19T00:56:05;16.50;99.90
73576;DHT22;61859;49.204;8.140;2023-09-19T00:58:32;16.50;99.90
73576;DHT22;61859;49.204;8.140;2023-09-19T01:01:01;16.50;99.90
73576;DHT22;61859;49.204;8.140;2023-09-19T01:03:28;16.60;99.90
73576;DHT22;61859;49.204;8.140;2023-09-19T01:05:54;16.60;99.90
73576;DHT22;61859;49.204;8.140;2023-09-19T01:08:20;16.60;99.90
73576;DHT22;61859;49.204;8.140;2023-09-19T01:10:57;16.50;99.90
73576;DHT22;61859;49.204;8.140;2023-09-19T01:13:47;16.50;99.90
73576;DHT22;61859;49.204;8.140;2023-09-19T01:16:26;16.50;99.90
73576;DHT22;61859;49.204;8.140;2023-09-19T01:19:07;16.50;99.90
73576;DHT22;61859;49.204;8.140;2023-09-19T01:28:34;16.50;99.90
73576;DHT22;61859;49.204;8.140;2023-09-19T01:31:09;16.50;99.90
73576;DHT22;61859;49.204;8.140;2023-09-19T01:34:02;16.50;99.90
73576;DHT22;61859;49.204;8.140;2023-09-19T01:36:35;16.50;99.90
73576;DHT22;61859;49.204;8.140;2023-09-19T01:39:06;16.60;99.70
73576;DHT22;61859;49.204;8.140;2023-09-19T01:41:59;16.50;99.50
73576;DHT22;61859;49.204;8.140;2023-09-19T01:44:40;16.70;99.50
73576;DHT22;61859;49.204;8.140;2023-09-19T01:47:31;16.60;99.50
73576;DHT22;61859;49.204;8.140;2023-09-19T01:50:38;16.70;99.30
73576;DHT22;61859;49.204;8.140;2023-09-19T01:53:14;16.80;99.10
73576;DHT22;61859;49.204;8.140;2023-09-19T01:55:46;16.80;98.90
73576;DHT22;61859;49.204;8.140;2023-09-19T01:58:34;16.90;98.80
73576;DHT22;61859;49.204;8.140;2023-09-19T02:01:04;16.90;98.50
73576;DHT22;61859;49.204;8.140;2023-09-19T02:03:31;16.90;98.60
73576;DHT22;61859;49.204;8.140;2023-09-19T02:05:58;17.00;98.60
73576;DHT22;61859;49.204;8.140;2023-09-19T02:08:24;17.10;98.60
73576;DHT22;61859;49.204;8.140;2023-09-19T02:10:50;17.10;98.40
73576;DHT22;61859;49.204;8.140;2023-09-19T02:13:17;17.20;98.30
73576;DHT22;61859;49.204;8.140;2023-09-19T02:15:43;17.20;98.10
73576;DHT22;61859;49.204;8.140;2023-09-19T02:18:12;17.20;98.20
73576;DHT22;61859;49.204;8.140;2023-09-19T02:20:38;17.30;98.30
73576;DHT22;61859;49.204;8.140;2023-09-19T02:23:04;17.20;98.40
73576;DHT22;61859;49.204;8.140;2023-09-19T02:25:30;17.20;98.40
73576;DHT22;61859;49.204;8.140;2023-09-19T02:27:57;17.20;98.60
73576;DHT22;61859;49.204;8.140;2023-09-19T02:30:24;17.20;98.50
73576;DHT22;61859;49.204;8.140;2023-09-19T02:32:51;17.20;98.60
73576;DHT22;61859;49.204;8.140;2023-09-19T02:35:17;17.10;98.50
73576;DHT22;61859;49.204;8.140;2023-09-19T02:37:45;17.10;98.50
73576;DHT22;61859;49.204;8.140;2023-09-19T02:40:11;17.20;98.10
73576;DHT22;61859;49.204;8.140;2023-09-19T02:42:53;17.10;98.30
73576;DHT22;61859;49.204;8.140;2023-09-19T02:45:19;17.00;98.20
73576;DHT22;61859;49.204;8.140;2023-09-19T02:47:46;17.00;98.10
73576;DHT22;61859;49.204;8.140;2023-09-19T02:50:13;17.00;97.60
73576;DHT22;61859;49.204;8.140;2023-09-19T02:52:45;17.00;97.50
73576;DHT22;61859;49.204;8.140;2023-09-19T02:55:15;17.00;97.20
73576;DHT22;61859;49.204;8.140;2023-09-19T02:57:49;17.00;96.90
73576;DHT22;61859;49.204;8.140;2023-09-19T03:00:17;17.00;96.90
73576;DHT22;61859;49.204;8.140;2023-09-19T03:02:54;17.00;96.80
73576;DHT22;61859;49.204;8.140;2023-09-19T03:05:21;17.00;96.90
73576;DHT22;61859;49.204;8.140;2023-09-19T03:07:47;16.90;97.00
73576;DHT22;61859;49.204;8.140;2023-09-19T03:10:17;16.90;97.20
73576;DHT22;61859;49.204;8.140;2023-09-19T03:12:43;16.90;97.20
73576;DHT22;61859;49.204;8.140;2023-09-19T03:15:09;16.90;97.40
73576;DHT22;61859;49.204;8.140;2023-09-19T03:17:35;16.90;97.60
73576;DHT22;61859;49.204;8.140;2023-09-19T03:20:02;16.80;97.60
73576;DHT22;61859;49.204;8.140;2023-09-19T03:22:28;16.80;97.60
73576;DHT22;61859;49.204;8.140;2023-09-19T03:24:53;16.90;97.70
73576;DHT22;61859;49.204;8.140;2023-09-19T03:27:19;16.80;97.50
73576;DHT22;61859;49.204;8.140;2023-09-19T03:29:46;16.80;97.70
73576;DHT22;61859;49.204;8.140;2023-09-19T03:32:12;16.80;96.60
73576;DHT22;61859;49.204;8.140;2023-09-19T03:34:38;16.90;96.40
73576;DHT22;61859;49.204;8.140;2023-09-19T03:37:08;16.90;96.60
73576;DHT22;61859;49.204;8.140;2023-09-19T03:39:34;16.80;96.00
73576;DHT22;61859;49.204;8.140;2023-09-19T03:42:01;16.80;96.00
73576;DHT22;61859;49.204;8.140;2023-09-19T03:44:27;16.90;95.90
73576;DHT22;61859;49.204;8.140;2023-09-19T03:46:52;16.80;95.30
73576;DHT22;61859;49.204;8.140;2023-09-19T03:49:18;16.90;94.70
73576;DHT22;61859;49.204;8.140;2023-09-19T03:51:44;16.80;93.70
73576;DHT22;61859;49.204;8.140;2023-09-19T03:54:10;16.90;94.20
73576;DHT22;61859;49.204;8.140;2023-09-19T03:56:35;16.90;93.90
73576;DHT22;61859;49.204;8.140;2023-09-19T03:59:01;16.80;92.90
73576;DHT22;61859;49.204;8.140;2023-09-19T04:01:27;16.80;92.70
73576;DHT22;61859;49.204;8.140;2023-09-19T04:03:53;16.70;92.90
73576;DHT22;61859;49.204;8.140;2023-09-19T04:06:19;16.80;92.10
73576;DHT22;61859;49.204;8.140;2023-09-19T04:08:45;16.70;91.50
73576;DHT22;61859;49.204;8.140;2023-09-19T04:11:13;16.70;91.80
73576;DHT22;61859;49.204;8.140;2023-09-19T04:13:39;16.80;91.80
73576;DHT22;61859;49.204;8.140;2023-09-19T04:16:05;16.70;92.30
73576;DHT22;61859;49.204;8.140;2023-09-19T04:18:32;16.70;92.30
73576;DHT22;61859;49.204;8.140;2023-09-19T04:20:59;16.70;92.50
73576;DHT22;61859;49.204;8.140;2023-09-19T04:23:28;16.60;92.00
73576;DHT22;61859;49.204;8.140;2023-09-19T04:25:53;16.60;92.20
73576;DHT22;61859;49.204;8.140;2023-09-19T04:28:19;16.70;92.60
73576;DHT22;61859;49.204;8.140;2023-09-19T04:30:45;16.60;92.80
73576;DHT22;61859;49.204;8.140;2023-09-19T04:33:10;16.60;92.80
73576;DHT22;61859;49.204;8.140;2023-09-19T04:35:40;16.60;92.50
73576;DHT22;61859;49.204;8.140;2023-09-19T04:38:08;16.50;92.60
73576;DHT22;61859;49.204;8.140;2023-09-19T04:40:34;16.50;92.40
73576;DHT22;61859;49.204;8.140;2023-09-19T04:43:00;16.50;91.80
73576;DHT22;61859;49.204;8.140;2023-09-19T04:45:27;16.50;91.80
73576;DHT22;61859;49.204;8.140;2023-09-19T04:47:53;16.50;92.20
73576;DHT22;61859;49.204;8.140;2023-09-19T04:50:19;16.40;91.80
73576;DHT22;61859;49.204;8.140;2023-09-19T04:52:49;16.50;92.10
73576;DHT22;61859;49.204;8.140;2023-09-19T04:55:17;16.40;91.70
73576;DHT22;61859;49.204;8.140;2023-09-19T04:58:00;16.40;92.00
73576;DHT22;61859;49.204;8.140;2023-09-19T05:00:26;16.40;91.80
73576;DHT22;61859;49.204;8.140;2023-09-19T05:02:56;16.40;91.90
73576;DHT22;61859;49.204;8.140;2023-09-19T05:05:22;16.40;92.10
73576;DHT22;61859;49.204;8.140;2023-09-19T05:07:49;16.30;92.30
73576;DHT22;61859;49.204;8.140;2023-09-19T05:10:16;16.30;92.50
73576;DHT22;61859;49.204;8.140;2023-09-19T05:12:44;16.30;92.80
73576;DHT22;61859;49.204;8.140;2023-09-19T05:15:12;16.20;93.20
73576;DHT22;61859;49.204;8.140;2023-09-19T05:17:40;16.20;93.30
73576;DHT22;61859;49.204;8.140;2023-09-19T05:20:06;16.00;93.60
73576;DHT22;61859;49.204;8.140;2023-09-19T05:22:57;16.10;93.80
73576;DHT22;61859;49.204;8.140;2023-09-19T05:25:23;16.10;94.00
73576;DHT22;61859;49.204;8.140;2023-09-19T05:27:53;16.00;94.20
73576;DHT22;61859;49.204;8.140;2023-09-19T05:30:18;16.00;94.70
73576;DHT22;61859;49.204;8.140;2023-09-19T05:32:45;15.90;94.90
73576;DHT22;61859;49.204;8.140;2023-09-19T05:35:11;15.80;95.30
73576;DHT22;61859;49.204;8.140;2023-09-19T05:37:38;15.90;95.40
73576;DHT22;61859;49.204;8.140;2023-09-19T05:40:04;15.90;95.60
73576;DHT22;61859;49.204;8.140;2023-09-19T05:42:38;15.90;95.70
73576;DHT22;61859;49.204;8.140;2023-09-19T05:45:05;15.90;95.40
73576;DHT22;61859;49.204;8.140;2023-09-19T05:47:32;15.90;95.40
73576;DHT22;61859;49.204;8.140;2023-09-19T05:49:57;16.00;95.50
73576;DHT22;61859;49.204;8.140;2023-09-19T05:52:24;16.10;95.40
73576;DHT22;61859;49.204;8.140;2023-09-19T05:54:50;16.10;95.10
73576;DHT22;61859;49.204;8.140;2023-09-19T05:57:16;16.20;94.70
73576;DHT22;61859;49.204;8.140;2023-09-19T05:59:42;16.20;94.70
73576;DHT22;61859;49.204;8.140;2023-09-19T06:02:08;16.20;94.00
73576;DHT22;61859;49.204;8.140;2023-09-19T06:04:35;16.30;94.10
73576;DHT22;61859;49.204;8.140;2023-09-19T06:07:01;16.30;94.10
73576;DHT22;61859;49.204;8.140;2023-09-19T06:09:27;16.40;93.90
73576;DHT22;61859;49.204;8.140;2023-09-19T06:11:53;16.30;93.30
73576;DHT22;61859;49.204;8.140;2023-09-19T06:14:20;16.40;93.20
73576;DHT22;61859;49.204;8.140;2023-09-19T06:16:46;16.40;92.70
73576;DHT22;61859;49.204;8.140;2023-09-19T06:19:12;16.50;91.70
73576;DHT22;61859;49.204;8.140;2023-09-19T06:21:38;16.60;91.30
73576;DHT22;61859;49.204;8.140;2023-09-19T06:24:04;16.70;91.20
73576;DHT22;61859;49.204;8.140;2023-09-19T06:26:30;16.70;90.60
73576;DHT22;61859;49.204;8.140;2023-09-19T06:28:56;16.70;90.30
73576;DHT22;61859;49.204;8.140;2023-09-19T06:31:22;16.70;89.90
73576;DHT22;61859;49.204;8.140;2023-09-19T06:33:52;16.80;89.90
73576;DHT22;61859;49.204;8.140;2023-09-19T06:36:17;16.80;90.20
73576;DHT22;61859;49.204;8.140;2023-09-19T06:38:44;16.80;89.10
73576;DHT22;61859;49.204;8.140;2023-09-19T06:41:10;16.90;88.70
73576;DHT22;61859;49.204;8.140;2023-09-19T06:43:36;17.00;89.70
73576;DHT22;61859;49.204;8.140;2023-09-19T06:46:02;17.00;88.30
73576;DHT22;61859;49.204;8.140;2023-09-19T06:48:28;17.00;88.20
73576;DHT22;61859;49.204;8.140;2023-09-19T06:50:55;17.10;88.30
73576;DHT22;61859;49.204;8.140;2023-09-19T06:53:24;17.20;88.10
73576;DHT22;61859;49.204;8.140;2023-09-19T06:55:50;17.30;87.70
73576;DHT22;61859;49.204;8.140;2023-09-19T06:58:16;17.40;87.40
73576;DHT22;61859;49.204;8.140;2023-09-19T07:00:45;17.50;87.10
73576;DHT22;61859;49.204;8.140;2023-09-19T07:03:13;17.60;86.90
73576;DHT22;61859;49.204;8.140;2023-09-19T07:05:40;17.70;86.30
73576;DHT22;61859;49.204;8.140;2023-09-19T07:08:07;17.80;86.70
73576;DHT22;61859;49.204;8.140;2023-09-19T07:10:34;17.80;86.20
73576;DHT22;61859;49.204;8.140;2023-09-19T07:13:07;17.90;86.10
73576;DHT22;61859;49.204;8.140;2023-09-19T07:15:34;18.10;85.20
73576;DHT22;61859;49.204;8.140;2023-09-19T07:18:14;18.30;84.00
73576;DHT22;61859;49.204;8.140;2023-09-19T07:20:41;18.30;83.30
73576;DHT22;61859;49.204;8.140;2023-09-19T07:23:17;18.40;83.80
73576;DHT22;61859;49.204;8.140;2023-09-19T07:25:44;18.50;82.20
73576;DHT22;61859;49.204;8.140;2023-09-19T07:28:09;18.60;81.80
73576;DHT22;61859;49.204;8.140;2023-09-19T07:30:38;18.60;81.30
73576;DHT22;61859;49.204;8.140;2023-09-19T07:33:05;18.70;81.10
73576;DHT22;61859;49.204;8.140;2023-09-19T07:35:31;18.90;80.90
73576;DHT22;61859;49.204;8.140;2023-09-19T07:37:57;18.90;79.90
73576;DHT22;61859;49.204;8.140;2023-09-19T07:40:23;19.00;79.90
73576;DHT22;61859;49.204;8.140;2023-09-19T07:42:50;19.00;79.40
73576;DHT22;61859;49.204;8.140;2023-09-19T07:45:16;19.00;79.60
73576;DHT22;61859;49.204;8.140;2023-09-19T07:47:50;18.90;79.00
73576;DHT22;61859;49.204;8.140;2023-09-19T07:50:17;19.00;78.80
73576;DHT22;61859;49.204;8.140;2023-09-19T07:52:47;19.10;77.80
73576;DHT22;61859;49.204;8.140;2023-09-19T07:55:13;19.20;77.10
73576;DHT22;61859;49.204;8.140;2023-09-19T07:57:42;19.30;77.10
73576;DHT22;61859;49.204;8.140;2023-09-19T08:00:09;19.50;76.10
73576;DHT22;61859;49.204;8.140;2023-09-19T08:02:42;19.50;75.30
73576;DHT22;61859;49.204;8.140;2023-09-19T08:05:10;19.60;75.00
73576;DHT22;61859;49.204;8.140;2023-09-19T08:07:37;19.70;74.80
73576;DHT22;61859;49.204;8.140;2023-09-19T08:10:04;19.60;73.50
73576;DHT22;61859;49.204;8.140;2023-09-19T08:12:31;19.60;73.80
73576;DHT22;61859;49.204;8.140;2023-09-19T08:14:57;19.50;74.10
73576;DHT22;61859;49.204;8.140;2023-09-19T08:17:23;19.60;74.30
73576;DHT22;61859;49.204;8.140;2023-09-19T08:19:49;19.40;74.90
73576;DHT22;61859;49.204;8.140;2023-09-19T08:22:19;19.30;73.00
73576;DHT22;61859;49.204;8.140;2023-09-19T08:24:44;19.20;72.80
73576;DHT22;61859;49.204;8.140;2023-09-19T08:27:10;19.00;72.60
73576;DHT22;61859;49.204;8.140;2023-09-19T08:29:38;19.20;73.30
73576;DHT22;61859;49.204;8.140;2023-09-19T08:32:04;19.10;73.40
73576;DHT22;61859;49.204;8.140;2023-09-19T08:34:30;19.20;73.80
73576;DHT22;61859;49.204;8.140;2023-09-19T08:36:58;19.20;72.70
73576;DHT22;61859;49.204;8.140;2023-09-19T08:39:24;19.30;73.70
73576;DHT22;61859;49.204;8.140;2023-09-19T08:41:57;19.50;71.60
73576;DHT22;61859;49.204;8.140;2023-09-19T08:44:24;19.50;70.50
73576;DHT22;61859;49.204;8.140;2023-09-19T08:46:54;19.40;71.00
73576;DHT22;61859;49.204;8.140;2023-09-19T08:49:26;19.50;71.10
73576;DHT22;61859;49.204;8.140;2023-09-19T08:52:10;19.60;70.90
73576;DHT22;61859;49.204;8.140;2023-09-19T08:54:40;19.60;69.30
73576;DHT22;61859;49.204;8.140;2023-09-19T08:57:07;19.50;69.70
73576;DHT22;61859;49.204;8.140;2023-09-19T08:59:41;19.30;68.50
73576;DHT22;61859;49.204;8.140;2023-09-19T09:02:11;19.20;70.40
73576;DHT22;61859;49.204;8.140;2023-09-19T09:04:40;19.00;70.90
73576;DHT22;61859;49.204;8.140;2023-09-19T09:07:13;18.90;70.60
73576;DHT22;61859;49.204;8.140;2023-09-19T09:09:40;18.80;70.70
73576;DHT22;61859;49.204;8.140;2023-09-19T09:12:13;19.00;71.80
73576;DHT22;61859;49.204;8.140;2023-09-19T09:14:40;19.30;71.10
73576;DHT22;61859;49.204;8.140;2023-09-19T09:17:07;19.70;68.80
73576;DHT22;61859;49.204;8.140;2023-09-19T09:19:33;19.90;68.50
73576;DHT22;61859;49.204;8.140;2023-09-19T09:22:11;20.30;67.50
73576;DHT22;61859;49.204;8.140;2023-09-19T09:24:38;20.50;67.30
73576;DHT22;61859;49.204;8.140;2023-09-19T09:27:16;20.60;66.10
73576;DHT22;61859;49.204;8.140;2023-09-19T09:29:48;20.70;66.60
73576;DHT22;61859;49.204;8.140;2023-09-19T09:32:28;20.90;64.80
73576;DHT22;61859;49.204;8.140;2023-09-19T09:34:59;21.00;64.60
73576;DHT22;61859;49.204;8.140;2023-09-19T09:37:25;21.30;64.90
73576;DHT22;61859;49.204;8.140;2023-09-19T09:40:10;21.60;63.90
73576;DHT22;61859;49.204;8.140;2023-09-19T09:42:41;21.90;62.80
73576;DHT22;61859;49.204;8.140;2023-09-19T09:45:21;21.80;60.10
73576;DHT22;61859;49.204;8.140;2023-09-19T09:48:25;21.50;61.80
73576;DHT22;61859;49.204;8.140;2023-09-19T09:50:57;21.50;62.70
73576;DHT22;61859;49.204;8.140;2023-09-19T09:53:27;21.80;61.60
73576;DHT22;61859;49.204;8.140;2023-09-19T09:58:28;21.80;61.80
73576;DHT22;61859;49.204;8.140;2023-09-19T10:01:01;21.80;60.50
73576;DHT22;61859;49.204;8.140;2023-09-19T10:03:38;21.40;61.20
73576;DHT22;61859;49.204;8.140;2023-09-19T10:06:06;21.20;61.20
73576;DHT22;61859;49.204;8.140;2023-09-19T10:09:04;20.80;63.50
73576;DHT22;61859;49.204;8.140;2023-09-19T10:11:46;20.60;64.40
73576;DHT22;61859;49.204;8.140;2023-09-19T10:14:15;20.60;64.80
73576;DHT22;61859;49.204;8.140;2023-09-19T10:16:48;20.70;64.90
73576;DHT22;61859;49.204;8.140;2023-09-19T10:19:37;20.80;64.00
73576;DHT22;61859;49.204;8.140;2023-09-19T10:22:06;20.90;64.00
73576;DHT22;61859;49.204;8.140;2023-09-19T10:24:35;20.90;64.50
73576;DHT22;61859;49.204;8.140;2023-09-19T10:27:04;21.00;63.40
73576;DHT22;61859;49.204;8.140;2023-09-19T10:29:34;21.10;63.70
73576;DHT22;61859;49.204;8.140;2023-09-19T10:32:03;21.40;63.10
73576;DHT22;61859;49.204;8.140;2023-09-19T10:34:33;21.60;62.00
73576;DHT22;61859;49.204;8.140;2023-09-19T10:37:02;21.70;62.40
73576;DHT22;61859;49.204;8.140;2023-09-19T10:39:35;22.00;61.00
73576;DHT22;61859;49.204;8.140;2023-09-19T10:42:06;22.20;61.20
73576;DHT22;61859;49.204;8.140;2023-09-19T10:44:38;22.60;60.10
73576;DHT22;61859;49.204;8.140;2023-09-19T10:47:07;22.90;58.80
73576;DHT22;61859;49.204;8.140;2023-09-19T10:49:34;22.90;57.70
73576;DHT22;61859;49.204;8.140;2023-09-19T10:52:01;23.20;58.90
73576;DHT22;61859;49.204;8.140;2023-09-19T10:54:34;23.30;57.10
73576;DHT22;61859;49.204;8.140;2023-09-19T10:57:02;23.30;57.50
73576;DHT22;61859;49.204;8.140;2023-09-19T10:59:30;23.30;56.80
73576;DHT22;61859;49.204;8.140;2023-09-19T11:02:16;23.50;55.50
73576;DHT22;61859;49.204;8.140;2023-09-19T11:04:43;23.50;55.90
73576;DHT22;61859;49.204;8.140;2023-09-19T11:07:14;23.10;56.20
73576;DHT22;61859;49.204;8.140;2023-09-19T11:09:54;22.80;55.60
73576;DHT22;61859;49.204;8.140;2023-09-19T11:27:09;23.50;53.90
73576;DHT22;61859;49.204;8.140;2023-09-19T11:29:36;23.60;54.60
73576;DHT22;61859;49.204;8.140;2023-09-19T11:32:03;23.80;53.80
73576;DHT22;61859;49.204;8.140;2023-09-19T11:39:37;23.80;52.40
73576;DHT22;61859;49.204;8.140;2023-09-19T11:45:06;23.70;53.70
73576;DHT22;61859;49.204;8.140;2023-09-19T11:47:32;23.60;54.50
73576;DHT22;61859;49.204;8.140;2023-09-19T11:50:01;23.70;52.50
73576;DHT22;61859;49.204;8.140;2023-09-19T11:52:28;23.70;53.50
73576;DHT22;61859;49.204;8.140;2023-09-19T11:55:01;23.50;54.10
73576;DHT22;61859;49.204;8.140;2023-09-19T11:57:28;23.40;52.60
73576;DHT22;61859;49.204;8.140;2023-09-19T11:59:55;23.10;53.80
73576;DHT22;61859;49.204;8.140;2023-09-19T12:02:42;23.10;54.30
73576;DHT22;61859;49.204;8.140;2023-09-19T12:05:12;23.20;53.40
73576;DHT22;61859;49.204;8.140;2023-09-19T12:07:44;23.20;53.20
73576;DHT22;61859;49.204;8.140;2023-09-19T12:10:13;22.90;53.90
73576;DHT22;61859;49.204;8.140;2023-09-19T12:12:39;22.80;53.70
73576;DHT22;61859;49.204;8.140;2023-09-19T12:15:07;22.90;54.00
73576;DHT22;61859;49.204;8.140;2023-09-19T12:17:40;22.70;54.50
73576;DHT22;61859;49.204;8.140;2023-09-19T12:20:08;22.70;54.70
73576;DHT22;61859;49.204;8.140;2023-09-19T12:22:45;23.00;54.10
73576;DHT22;61859;49.204;8.140;2023-09-19T12:25:15;23.10;54.20
73576;DHT22;61859;49.204;8.140;2023-09-19T12:27:47;23.00;54.70
73576;DHT22;61859;49.204;8.140;2023-09-19T12:30:13;23.00;53.80
73576;DHT22;61859;49.204;8.140;2023-09-19T12:32:48;22.80;54.40
73576;DHT22;61859;49.204;8.140;2023-09-19T12:35:32;22.80;54.80
73576;DHT22;61859;49.204;8.140;2023-09-19T12:38:01;23.50;53.60
73576;DHT22;61859;49.204;8.140;2023-09-19T12:40:28;24.00;53.90
73576;DHT22;61859;49.204;8.140;2023-09-19T12:42:59;24.20;53.30
73576;DHT22;61859;49.204;8.140;2023-09-19T12:45:26;24.20;53.50
73576;DHT22;61859;49.204;8.140;2023-09-19T12:48:17;24.00;53.00
73576;DHT22;61859;49.204;8.140;2023-09-19T12:53:42;24.10;52.30
73576;DHT22;61859;49.204;8.140;2023-09-19T12:56:10;23.80;53.60
73576;DHT22;61859;49.204;8.140;2023-09-19T12:58:55;23.80;53.90
73576;DHT22;61859;49.204;8.140;2023-09-19T13:01:24;23.80;53.90
73576;DHT22;61859;49.204;8.140;2023-09-19T13:04:12;23.80;53.90
73576;DHT22;61859;49.204;8.140;2023-09-19T13:06:38;23.90;54.70
73576;DHT22;61859;49.204;8.140;2023-09-19T13:09:10;24.00;53.70
73576;DHT22;61859;49.204;8.140;2023-09-19T13:11:37;24.20;52.80
73576;DHT22;61859;49.204;8.140;2023-09-19T13:17:02;24.30;53.80
73576;DHT22;61859;49.204;8.140;2023-09-19T13:19:46;24.60;51.60
73576;DHT22;61859;49.204;8.140;2023-09-19T13:22:37;24.80;50.70
73576;DHT22;61859;49.204;8.140;2023-09-19T13:25:21;24.70;51.10
73576;DHT22;61859;49.204;8.140;2023-09-19T13:27:49;24.50;51.50
73576;DHT22;61859;49.204;8.140;2023-09-19T13:30:20;24.40;51.10
73576;DHT22;61859;49.204;8.140;2023-09-19T13:32:47;24.40;52.00
73576;DHT22;61859;49.204;8.140;2023-09-19T13:35:13;24.10;52.20
73576;DHT22;61859;49.204;8.140;2023-09-19T13:37:40;23.80;52.60
73576;DHT22;61859;49.204;8.140;2023-09-19T13:40:10;23.40;53.70
73576;DHT22;61859;49.204;8.140;2023-09-19T13:42:36;23.50;54.20
73576;DHT22;61859;49.204;8.140;2023-09-19T13:45:06;23.80;53.60
73576;DHT22;61859;49.204;8.140;2023-09-19T13:47:36;24.00;53.60
73576;DHT22;61859;49.204;8.140;2023-09-19T13:50:03;24.20;53.20
73576;DHT22;61859;49.204;8.140;2023-09-19T13:52:30;24.20;52.50
73576;DHT22;61859;49.204;8.140;2023-09-19T13:54:57;24.10;53.70
73576;DHT22;61859;49.204;8.140;2023-09-19T13:57:24;24.30;52.50
73576;DHT22;61859;49.204;8.140;2023-09-19T13:59:50;24.00;52.90
73576;DHT22;61859;49.204;8.140;2023-09-19T14:02:17;23.50;53.90
73576;DHT22;61859;49.204;8.140;2023-09-19T14:04:44;23.40;54.70
73576;DHT22;61859;49.204;8.140;2023-09-19T14:07:11;23.30;54.30
73576;DHT22;61859;49.204;8.140;2023-09-19T14:09:37;23.10;55.40
73576;DHT22;61859;49.204;8.140;2023-09-19T14:12:03;23.10;55.10
73576;DHT22;61859;49.204;8.140;2023-09-19T14:14:29;23.50;54.40
73576;DHT22;61859;49.204;8.140;2023-09-19T14:16:54;23.90;54.20
73576;DHT22;61859;49.204;8.140;2023-09-19T14:19:20;24.30;53.80
73576;DHT22;61859;49.204;8.140;2023-09-19T14:21:46;24.30;53.40
73576;DHT22;61859;49.204;8.140;2023-09-19T14:24:17;24.10;53.50
73576;DHT22;61859;49.204;8.140;2023-09-19T14:26:43;23.90;54.60
73576;DHT22;61859;49.204;8.140;2023-09-19T14:29:09;23.60;54.60
73576;DHT22;61859;49.204;8.140;2023-09-19T14:31:40;23.40;55.20
73576;DHT22;61859;49.204;8.140;2023-09-19T14:34:06;23.30;54.50
73576;DHT22;61859;49.204;8.140;2023-09-19T14:36:31;23.00;55.20
73576;DHT22;61859;49.204;8.140;2023-09-19T14:38:58;22.80;56.40
73576;DHT22;61859;49.204;8.140;2023-09-19T14:41:24;22.90;56.50
73576;DHT22;61859;49.204;8.140;2023-09-19T14:43:54;23.10;56.00
73576;DHT22;61859;49.204;8.140;2023-09-19T14:46:21;23.00;56.50
73576;DHT22;61859;49.204;8.140;2023-09-19T14:48:47;22.90;57.00
73576;DHT22;61859;49.204;8.140;2023-09-19T14:51:13;22.80;57.70
73576;DHT22;61859;49.204;8.140;2023-09-19T14:53:42;22.80;58.00
73576;DHT22;61859;49.204;8.140;2023-09-19T14:56:09;23.10;58.10
73576;DHT22;61859;49.204;8.140;2023-09-19T14:58:36;23.50;56.40
73576;DHT22;61859;49.204;8.140;2023-09-19T15:01:09;23.70;56.10
73576;DHT22;61859;49.204;8.140;2023-09-19T15:03:38;23.90;56.10
73576;DHT22;61859;49.204;8.140;2023-09-19T15:06:11;24.10;55.60
73576;DHT22;61859;49.204;8.140;2023-09-19T15:08:41;24.20;55.50
73576;DHT22;61859;49.204;8.140;2023-09-19T15:11:11;24.30;54.20
73576;DHT22;61859;49.204;8.140;2023-09-19T15:13:38;24.30;54.00
73576;DHT22;61859;49.204;8.140;2023-09-19T15:16:08;24.00;54.60
73576;DHT22;61859;49.204;8.140;2023-09-19T15:18:38;23.80;55.70
73576;DHT22;61859;49.204;8.140;2023-09-19T15:21:05;23.90;55.40
73576;DHT22;61859;49.204;8.140;2023-09-19T15:23:31;24.10;55.60
73576;DHT22;61859;49.204;8.140;2023-09-19T15:26:00;24.30;55.40
73576;DHT22;61859;49.204;8.140;2023-09-19T15:28:27;24.50;54.30
73576;DHT22;61859;49.204;8.140;2023-09-19T15:31:04;24.60;53.70
73576;DHT22;61859;49.204;8.140;2023-09-19T15:33:31;24.50;53.80
73576;DHT22;61859;49.204;8.140;2023-09-19T15:36:08;24.10;54.20
73576;DHT22;61859;49.204;8.140;2023-09-19T15:39:02;23.80;54.80
73576;DHT22;61859;49.204;8.140;2023-09-19T15:41:33;23.50;55.10
73576;DHT22;61859;49.204;8.140;2023-09-19T15:44:01;23.40;54.80
73576;DHT22;61859;49.204;8.140;2023-09-19T15:46:32;23.50;54.50
73576;DHT22;61859;49.204;8.140;2023-09-19T15:49:01;23.60;55.00
73576;DHT22;61859;49.204;8.140;2023-09-19T15:51:27;23.70;55.40
73576;DHT22;61859;49.204;8.140;2023-09-19T15:53:53;23.90;54.30
73576;DHT22;61859;49.204;8.140;2023-09-19T15:56:21;24.10;54.20
73576;DHT22;61859;49.204;8.140;2023-09-19T15:58:49;24.30;53.10
73576;DHT22;61859;49.204;8.140;2023-09-19T16:01:15;24.50;52.80
73576;DHT22;61859;49.204;8.140;2023-09-19T16:03:49;24.50;52.60
73576;DHT22;61859;49.204;8.140;2023-09-19T16:06:17;24.60;52.70
73576;DHT22;61859;49.204;8.140;2023-09-19T16:08:45;24.60;52.80
73576;DHT22;61859;49.204;8.140;2023-09-19T16:11:12;24.40;53.20
73576;DHT22;61859;49.204;8.140;2023-09-19T16:13:39;24.40;53.50
73576;DHT22;61859;49.204;8.140;2023-09-19T16:16:10;24.40;54.20
73576;DHT22;61859;49.204;8.140;2023-09-19T16:18:54;24.40;53.50
73576;DHT22;61859;49.204;8.140;2023-09-19T16:21:23;24.10;54.00
73576;DHT22;61859;49.204;8.140;2023-09-19T16:23:50;23.80;54.50